createdAt,value
2019-01-25T00:01:11.605Z,-1.10
2019-01-25T00:04:01.485Z,-1.10
2019-01-25T00:06:51.347Z,-1.10
2019-01-25T00:09:41.426Z,-1.20
2019-01-25T00:12:31.336Z,-1.20
2019-01-25T00:15:21.474Z,-1.20
2019-01-25T00:18:11.405Z,-1.20
2019-01-25T00:21:01.334Z,-1.20
2019-01-25T00:23:51.732Z,-1.10
2019-01-25T00:26:41.723Z,-1.00
2019-01-25T00:29:31.846Z,-1.00
2019-01-25T00:32:22.003Z,-1.10
2019-01-25T00:35:12.442Z,-1.20
2019-01-25T00:38:02.906Z,-1.20
2019-01-25T00:40:52.915Z,-1.10
2019-01-25T00:43:42.566Z,-1.20
2019-01-25T00:46:32.297Z,-1.20
2019-01-25T00:49:22.603Z,-1.20
2019-01-25T00:52:12.231Z,-1.20
2019-01-25T00:55:01.518Z,-1.30
2019-01-25T00:57:51.286Z,-1.20
2019-01-25T01:00:41.004Z,-1.20
2019-01-25T01:03:30.666Z,-1.20
2019-01-25T01:06:20.783Z,-1.30
2019-01-25T01:09:11.560Z,-1.30
2019-01-25T01:12:01.677Z,-1.20
2019-01-25T01:14:52.651Z,-1.20
2019-01-25T01:17:42.883Z,-1.20
2019-01-25T01:20:32.865Z,-1.20
2019-01-25T01:23:22.678Z,-1.30
2019-01-25T01:26:12.765Z,-1.30
2019-01-25T01:29:02.604Z,-1.20
2019-01-25T01:31:52.307Z,-1.10
2019-01-25T01:34:42.363Z,-1.20
2019-01-25T01:37:32.612Z,-1.20
2019-01-25T01:40:26.644Z,-1.20
2019-01-25T01:43:16.636Z,-1.20
2019-01-25T01:46:06.636Z,-1.20
2019-01-25T01:48:56.326Z,-1.20
2019-01-25T01:51:46.164Z,-1.30
2019-01-25T01:54:36.267Z,-1.30
2019-01-25T01:57:26.267Z,-1.40
2019-01-25T02:00:18.735Z,-1.40
2019-01-25T02:03:08.766Z,-1.40
2019-01-25T02:05:59.385Z,-1.40
2019-01-25T02:08:49.324Z,-1.30
2019-01-25T02:11:39.374Z,-1.40
2019-01-25T02:14:29.225Z,-1.20
2019-01-25T02:17:19.147Z,-1.30
2019-01-25T02:20:10.968Z,-1.30
2019-01-25T02:23:00.959Z,-1.30
2019-01-25T02:25:50.797Z,-1.30
2019-01-25T02:28:40.676Z,-1.40
2019-01-25T02:31:30.653Z,-1.40
2019-01-25T02:34:20.811Z,-1.30
2019-01-25T02:37:11.165Z,-1.40
2019-01-25T02:40:01.209Z,-1.40
2019-01-25T02:42:52.570Z,-1.40
2019-01-25T02:45:42.528Z,-1.40
2019-01-25T02:48:32.527Z,-1.40
2019-01-25T02:51:22.608Z,-1.40
2019-01-25T02:54:12.563Z,-1.50
2019-01-25T02:57:02.495Z,-1.40
2019-01-25T02:59:52.627Z,-1.40
2019-01-25T03:02:42.844Z,-1.40
2019-01-25T03:05:32.578Z,-1.40
2019-01-25T03:08:22.744Z,-1.30
2019-01-25T03:11:12.703Z,-1.20
2019-01-25T03:14:02.787Z,-1.20
2019-01-25T03:16:52.573Z,-1.20
2019-01-25T03:19:42.346Z,-1.30
2019-01-25T03:22:32.131Z,-1.50
2019-01-25T03:25:24.277Z,-1.40
2019-01-25T03:28:14.443Z,-1.50
2019-01-25T03:31:04.282Z,-1.60
2019-01-25T03:33:54.325Z,-1.50
2019-01-25T03:36:44.103Z,-1.60
2019-01-25T03:39:34.000Z,-1.50
2019-01-25T03:42:24.160Z,-1.50
2019-01-25T03:45:14.814Z,-1.40
2019-01-25T03:48:05.673Z,-1.40
2019-01-25T03:50:55.434Z,-1.50
2019-01-25T03:53:45.627Z,-1.40
2019-01-25T03:56:35.414Z,-1.40
2019-01-25T03:59:25.185Z,-1.50
2019-01-25T04:02:14.884Z,-1.50
2019-01-25T04:05:06.407Z,-1.50
2019-01-25T04:07:56.404Z,-1.40
2019-01-25T04:10:46.444Z,-1.50
2019-01-25T04:13:36.656Z,-1.60
2019-01-25T04:16:26.738Z,-1.60
2019-01-25T04:19:16.856Z,-1.50
2019-01-25T04:22:06.828Z,-1.50
2019-01-25T04:24:56.740Z,-1.40
2019-01-25T04:27:46.474Z,-1.40
2019-01-25T04:30:36.455Z,-1.40
2019-01-25T04:33:26.077Z,-1.50
2019-01-25T04:36:15.859Z,-1.40
2019-01-25T04:39:08.757Z,-1.40
2019-01-25T04:41:58.744Z,-1.40
2019-01-25T04:44:48.815Z,-1.30
2019-01-25T04:47:38.847Z,-1.30
2019-01-25T04:50:28.929Z,-1.40
2019-01-25T04:53:18.574Z,-1.40
2019-01-25T04:56:08.746Z,-1.50
2019-01-25T04:58:58.944Z,-1.50
2019-01-25T05:01:48.547Z,-1.30
2019-01-25T05:04:38.705Z,-1.30
2019-01-25T05:07:28.451Z,-1.30
2019-01-25T05:10:18.846Z,-1.30
2019-01-25T05:13:09.043Z,-1.30
2019-01-25T05:15:58.609Z,-1.30
2019-01-25T05:18:48.601Z,-1.30
2019-01-25T05:21:38.688Z,-1.30
2019-01-25T05:24:28.870Z,-1.30
2019-01-25T05:27:18.654Z,-1.40
2019-01-25T05:30:10.985Z,-1.30
2019-01-25T05:33:00.879Z,-1.30
2019-01-25T05:35:50.939Z,-1.30
2019-01-25T05:38:46.840Z,-1.40
2019-01-25T05:41:36.858Z,-1.50
2019-01-25T05:44:26.983Z,-1.50
2019-01-25T05:47:17.243Z,-1.50
2019-01-25T05:50:08.512Z,-1.50
2019-01-25T05:52:58.224Z,-1.50
2019-01-25T05:55:47.939Z,-1.50
2019-01-25T05:58:37.596Z,-1.40
2019-01-25T06:01:27.791Z,-1.50
2019-01-25T06:04:18.058Z,-1.50
2019-01-25T06:07:08.391Z,-1.60
2019-01-25T06:09:58.090Z,-1.50
2019-01-25T06:12:53.275Z,-1.40
2019-01-25T06:15:43.108Z,-1.30
2019-01-25T06:18:33.421Z,-1.50
2019-01-25T06:21:23.346Z,-1.40
2019-01-25T06:24:13.498Z,-1.40
2019-01-25T06:27:03.202Z,-1.30
2019-01-25T06:29:53.251Z,-1.30
2019-01-25T06:32:43.342Z,-1.40
2019-01-25T06:35:33.351Z,-1.40
2019-01-25T06:38:23.392Z,-1.40
2019-01-25T06:41:13.167Z,-1.50
2019-01-25T06:44:02.939Z,-1.50
2019-01-25T06:46:53.080Z,-1.40
2019-01-25T06:49:42.594Z,-1.40
2019-01-25T06:52:32.441Z,-1.50
2019-01-25T06:55:22.100Z,-1.40
2019-01-25T06:58:37.764Z,-1.50
2019-01-25T07:01:49.699Z,-1.50
2019-01-25T07:04:39.555Z,-1.40
2019-01-25T07:07:32.721Z,-1.40
2019-01-25T07:10:22.800Z,-1.40
2019-01-25T07:13:12.421Z,-1.30
2019-01-25T07:16:02.262Z,-1.50
2019-01-25T07:18:52.118Z,-1.60
2019-01-25T07:21:41.997Z,-1.60
2019-01-25T07:24:31.921Z,-1.50
2019-01-25T07:27:21.611Z,-1.50
2019-01-25T07:30:12.321Z,-1.50
2019-01-25T07:33:02.385Z,-1.50
2019-01-25T07:35:52.560Z,-1.40
2019-01-25T07:38:42.322Z,-1.50
2019-01-25T07:41:32.113Z,-1.60
2019-01-25T07:44:21.859Z,-1.60
2019-01-25T07:47:11.712Z,-1.60
2019-01-25T07:50:01.630Z,-1.50
2019-01-25T07:52:51.578Z,-1.50
2019-01-25T07:55:41.692Z,-1.50
2019-01-25T07:58:32.058Z,-1.50
2019-01-25T08:01:22.583Z,-1.60
2019-01-25T08:04:12.333Z,-1.40
2019-01-25T08:07:01.780Z,-1.50
2019-01-25T08:09:51.456Z,-1.50
2019-01-25T08:12:41.004Z,-1.40
2019-01-25T08:15:31.218Z,-1.40
2019-01-25T08:18:21.265Z,-1.40
2019-01-25T08:21:16.798Z,-1.40
2019-01-25T08:24:07.168Z,-1.40
2019-01-25T08:26:57.092Z,-1.40
2019-01-25T08:29:46.743Z,-1.40
2019-01-25T08:32:36.982Z,-1.40
2019-01-25T08:35:26.949Z,-1.50
2019-01-25T08:38:17.005Z,-1.40
2019-01-25T08:41:07.121Z,-1.40
2019-01-25T08:43:56.977Z,-1.40
2019-01-25T08:47:10.402Z,-1.40
2019-01-25T08:50:00.789Z,-1.30
2019-01-25T08:52:50.602Z,-1.30
2019-01-25T08:55:40.552Z,-1.40
2019-01-25T08:58:30.470Z,-1.40
2019-01-25T09:01:20.520Z,-1.40
2019-01-25T09:04:10.408Z,-1.30
2019-01-25T09:07:00.301Z,-1.30
2019-01-25T09:09:49.881Z,-1.30
2019-01-25T09:12:39.541Z,-1.40
2019-01-25T09:15:29.984Z,-1.30
2019-01-25T09:18:19.738Z,-1.30
2019-01-25T09:21:09.567Z,-1.40
2019-01-25T09:23:59.821Z,-1.40
2019-01-25T09:26:49.481Z,-1.30
2019-01-25T09:29:39.441Z,-1.30
2019-01-25T09:32:29.710Z,-1.30
2019-01-25T09:35:19.863Z,-1.30
2019-01-25T09:38:10.119Z,-1.20
2019-01-25T09:40:59.930Z,-1.20
2019-01-25T09:43:50.102Z,-1.00
2019-01-25T09:46:39.877Z,-1.00
2019-01-25T09:49:29.555Z,-1.10
2019-01-25T09:52:19.622Z,-1.00
2019-01-25T09:55:12.068Z,-1.00
2019-01-25T09:58:04.078Z,-1.00
2019-01-25T10:01:00.435Z,-1.00
2019-01-25T10:03:50.599Z,-1.10
2019-01-25T10:06:40.198Z,-1.10
2019-01-25T10:09:29.781Z,-1.00
2019-01-25T10:12:19.738Z,-1.00
2019-01-25T10:15:11.980Z,-1.00
2019-01-25T10:18:01.750Z,-0.90
2019-01-25T10:20:51.603Z,-0.90
2019-01-25T10:23:41.718Z,-0.90
2019-01-25T10:26:31.631Z,-0.80
2019-01-25T10:29:21.718Z,-0.90
2019-01-25T10:32:11.590Z,-0.90
2019-01-25T10:35:01.434Z,-0.80
2019-01-25T10:37:51.979Z,-0.80
2019-01-25T10:40:41.768Z,-0.80
2019-01-25T10:43:31.518Z,-0.70
2019-01-25T10:46:21.348Z,-0.60
2019-01-25T10:49:11.004Z,-0.70
2019-01-25T10:52:00.700Z,-0.70
2019-01-25T10:54:50.551Z,-0.70
2019-01-25T10:57:40.828Z,-0.70
2019-01-25T11:00:31.052Z,-0.80
2019-01-25T11:03:20.809Z,-0.70
2019-01-25T11:06:10.896Z,-0.70
2019-01-25T11:09:00.807Z,-0.80
2019-01-25T11:11:52.134Z,-0.70
2019-01-25T11:14:41.949Z,-0.70
2019-01-25T11:17:36.352Z,-0.60
2019-01-25T11:20:23.989Z,-0.60
2019-01-25T11:23:14.106Z,-0.60
2019-01-25T11:26:04.071Z,-0.60
2019-01-25T11:28:53.940Z,-0.60
2019-01-25T11:31:43.662Z,-0.60
2019-01-25T11:34:33.677Z,-0.70
2019-01-25T11:37:23.920Z,-0.70
2019-01-25T11:40:17.751Z,-0.60
2019-01-25T11:43:09.041Z,-0.50
2019-01-25T11:45:59.322Z,-0.50
2019-01-25T11:48:49.382Z,-0.50
2019-01-25T11:51:39.174Z,-0.50
2019-01-25T11:54:29.222Z,-0.50
2019-01-25T11:57:22.199Z,-0.40
2019-01-25T12:00:15.702Z,-0.40
2019-01-25T12:03:06.434Z,-0.40
2019-01-25T12:05:56.957Z,-0.30
2019-01-25T12:08:47.350Z,-0.40
2019-01-25T12:11:37.326Z,-0.40
2019-01-25T12:14:27.025Z,-0.40
2019-01-25T12:17:16.779Z,-0.40
2019-01-25T12:20:09.079Z,-0.40
2019-01-25T12:22:58.703Z,-0.40
2019-01-25T12:25:48.493Z,-0.40
2019-01-25T12:28:38.159Z,-0.30
2019-01-25T12:31:28.052Z,-0.30
2019-01-25T12:34:17.998Z,-0.30
2019-01-25T12:37:08.288Z,-0.30
2019-01-25T12:39:58.295Z,-0.30
2019-01-25T12:42:47.890Z,-0.20
2019-01-25T12:45:41.187Z,-0.20
2019-01-25T12:48:31.520Z,-0.30
2019-01-25T12:51:38.180Z,-0.20
2019-01-25T12:54:28.101Z,-0.20
2019-01-25T12:57:18.093Z,-0.30
2019-01-25T13:00:10.679Z,-0.30
2019-01-25T13:03:00.814Z,-0.40
2019-01-25T13:05:50.637Z,-0.40
2019-01-25T13:08:40.470Z,-0.40
2019-01-25T13:11:30.633Z,-0.50
2019-01-25T13:14:22.220Z,-0.50
2019-01-25T13:17:14.898Z,-0.50
2019-01-25T13:20:05.667Z,-0.40
2019-01-25T13:22:55.351Z,-0.40
2019-01-25T13:25:47.188Z,-0.30
2019-01-25T13:28:41.620Z,-0.40
2019-01-25T13:31:28.372Z,-0.40
2019-01-25T13:34:18.310Z,-0.40
2019-01-25T13:37:08.581Z,-0.30
2019-01-25T13:39:58.104Z,-0.40
2019-01-25T13:42:48.439Z,-0.40
2019-01-25T13:45:38.138Z,-0.40
2019-01-25T13:48:28.327Z,-0.40
2019-01-25T13:51:18.251Z,-0.50
2019-01-25T13:54:07.968Z,-0.50
2019-01-25T13:56:59.199Z,-0.50
2019-01-25T13:59:49.232Z,-0.50
2019-01-25T14:02:38.828Z,-0.60
2019-01-25T14:05:28.841Z,-0.60
2019-01-25T14:08:18.614Z,-0.60
2019-01-25T14:11:08.798Z,-0.50
2019-01-25T14:13:58.412Z,-0.60
2019-01-25T14:16:51.239Z,-0.60
2019-01-25T14:19:41.118Z,-0.60
2019-01-25T14:22:31.201Z,-0.60
2019-01-25T14:25:21.073Z,-0.70
2019-01-25T14:28:14.242Z,-0.70
2019-01-25T14:31:04.153Z,-0.70
2019-01-25T14:33:54.297Z,-0.70
2019-01-25T14:36:44.159Z,-0.70
2019-01-25T14:39:34.282Z,-0.70
2019-01-25T14:42:24.058Z,-0.70
2019-01-25T14:45:13.968Z,-0.70
2019-01-25T14:48:03.642Z,-0.70
2019-01-25T14:50:53.308Z,-0.80
2019-01-25T14:53:43.382Z,-0.70
2019-01-25T14:56:33.169Z,-0.70
2019-01-25T14:59:23.153Z,-0.70
2019-01-25T15:02:12.938Z,-0.80
2019-01-25T15:05:02.811Z,-0.80
2019-01-25T15:07:52.799Z,-0.90
2019-01-25T15:10:42.548Z,-0.80
2019-01-25T15:13:32.369Z,-0.80
2019-01-25T15:16:22.352Z,-0.90
2019-01-25T15:19:12.320Z,-0.80
2019-01-25T15:22:02.221Z,-0.80
2019-01-25T15:24:52.067Z,-0.90
2019-01-25T15:27:42.738Z,-0.90
2019-01-25T15:30:34.199Z,-0.90
2019-01-25T15:33:24.333Z,-0.90
2019-01-25T15:36:13.950Z,-0.90
2019-01-25T15:39:04.861Z,-0.90
2019-01-25T15:41:54.772Z,-0.80
2019-01-25T15:44:44.782Z,-0.80
2019-01-25T15:47:34.399Z,-0.80
2019-01-25T15:50:26.378Z,-0.90
2019-01-25T15:53:16.198Z,-0.90
2019-01-25T15:56:06.708Z,-0.90
2019-01-25T15:58:56.579Z,-0.90
2019-01-25T16:01:46.279Z,-0.90
2019-01-25T16:04:35.870Z,-0.90
2019-01-25T16:07:25.768Z,-0.90
2019-01-25T16:10:17.362Z,-0.90
2019-01-25T16:13:07.549Z,-0.90
2019-01-25T16:15:57.819Z,-0.90
2019-01-25T16:18:47.660Z,-0.90
2019-01-25T16:21:38.472Z,-0.90
2019-01-25T16:24:28.624Z,-0.80
2019-01-25T16:27:18.608Z,-0.80
2019-01-25T16:30:11.827Z,-0.80
2019-01-25T16:33:02.083Z,-0.80
2019-01-25T16:35:52.116Z,-0.80
2019-01-25T16:38:42.069Z,-0.80
2019-01-25T16:41:31.774Z,-0.80
2019-01-25T16:44:25.663Z,-0.90
2019-01-25T16:47:13.077Z,-0.90
2019-01-25T16:50:02.778Z,-0.90
2019-01-25T16:52:53.051Z,-0.90
2019-01-25T16:55:43.132Z,-0.90
2019-01-25T16:58:33.420Z,-0.90
2019-01-25T17:01:23.362Z,-0.90
2019-01-25T17:04:13.203Z,-0.90
2019-01-25T17:07:03.410Z,-0.90
2019-01-25T17:09:53.158Z,-0.90
2019-01-25T17:12:49.904Z,-0.90
2019-01-25T17:15:40.560Z,-1.00
2019-01-25T17:18:31.162Z,-1.00
2019-01-25T17:21:21.958Z,-1.00
2019-01-25T17:24:13.607Z,-1.00
2019-01-25T17:27:04.431Z,-1.00
2019-01-25T17:29:56.421Z,-1.10
2019-01-25T17:32:49.231Z,-1.00
2019-01-25T17:35:40.051Z,-1.00
2019-01-25T17:38:30.178Z,-1.10
2019-01-25T17:41:21.228Z,-1.10
2019-01-25T17:44:11.610Z,-1.00
2019-01-25T17:47:02.890Z,-1.00
2019-01-25T17:49:53.741Z,-1.10
2019-01-25T17:52:43.578Z,-1.10
2019-01-25T17:55:37.717Z,-1.10
2019-01-25T18:02:29.714Z,-1.20
2019-01-25T18:05:20.269Z,-1.20
2019-01-25T18:08:10.570Z,-1.20
2019-01-25T18:11:00.939Z,-1.20
2019-01-25T18:13:51.518Z,-1.20
2019-01-25T18:16:42.057Z,-1.30
2019-01-25T18:19:31.968Z,-1.30
2019-01-25T18:22:22.789Z,-1.30
2019-01-25T18:25:14.543Z,-1.30
2019-01-25T18:28:05.457Z,-1.30
2019-01-25T18:30:59.278Z,-1.30
2019-01-25T18:33:49.389Z,-1.40
2019-01-25T18:36:39.714Z,-1.40
2019-01-25T18:39:29.812Z,-1.50
2019-01-25T18:42:19.980Z,-1.50
2019-01-25T18:45:10.639Z,-1.50
2019-01-25T18:48:01.241Z,-1.60
2019-01-25T18:50:51.421Z,-1.60
2019-01-25T18:53:42.050Z,-1.60
2019-01-25T18:56:33.424Z,-1.70
2019-01-25T18:59:25.518Z,-1.60
2019-01-25T19:02:15.877Z,-1.60
2019-01-25T19:05:07.011Z,-1.60
2019-01-25T19:07:57.518Z,-1.50
2019-01-25T19:10:48.339Z,-1.50
2019-01-25T19:13:39.298Z,-1.60
2019-01-25T19:16:29.387Z,-1.60
2019-01-25T19:19:19.992Z,-1.60
2019-01-25T19:22:10.112Z,-1.60
2019-01-25T19:25:00.770Z,-1.60
2019-01-25T19:27:50.659Z,-1.60
2019-01-25T19:30:42.617Z,-1.60
2019-01-25T19:33:32.561Z,-1.60
2019-01-25T19:36:22.298Z,-1.60
2019-01-25T19:39:16.019Z,-1.60
2019-01-25T19:42:06.170Z,-1.60
2019-01-25T19:44:55.918Z,-1.60
2019-01-25T19:47:45.690Z,-1.70
2019-01-25T19:50:35.879Z,-1.70
2019-01-25T19:53:26.058Z,-1.70
2019-01-25T19:56:15.957Z,-1.70
2019-01-25T19:59:06.357Z,-1.70
2019-01-25T20:01:56.037Z,-1.70
2019-01-25T20:04:46.228Z,-1.70
2019-01-25T20:07:35.912Z,-1.70
2019-01-25T20:10:25.856Z,-1.60
2019-01-25T20:13:15.948Z,-1.70
2019-01-25T20:16:06.080Z,-1.80
2019-01-25T20:18:55.738Z,-1.70
2019-01-25T20:21:46.129Z,-1.70
2019-01-25T20:24:35.997Z,-1.70
2019-01-25T20:27:26.098Z,-1.60
2019-01-25T20:30:26.637Z,-1.70
2019-01-25T20:33:16.502Z,-1.70
2019-01-25T20:36:07.011Z,-1.70
2019-01-25T20:38:56.781Z,-1.80
2019-01-25T20:41:46.479Z,-1.70
2019-01-25T20:44:36.117Z,-1.70
2019-01-25T20:47:25.830Z,-1.70
2019-01-25T20:50:18.161Z,-1.70
2019-01-25T20:53:09.274Z,-1.70
2019-01-25T20:55:59.151Z,-1.60
2019-01-25T20:58:52.047Z,-1.60
2019-01-25T21:01:42.089Z,-1.70
2019-01-25T21:04:32.080Z,-1.70
2019-01-25T21:07:21.850Z,-1.70
2019-01-25T21:10:13.800Z,-1.70
2019-01-25T21:13:05.365Z,-1.70
2019-01-25T21:15:55.500Z,-1.60
2019-01-25T21:18:45.358Z,-1.70
2019-01-25T21:21:35.485Z,-1.60
2019-01-25T21:24:25.539Z,-1.70
2019-01-25T21:27:15.783Z,-1.60
2019-01-25T21:30:07.398Z,-1.60
2019-01-25T21:32:57.414Z,-1.60
2019-01-25T21:35:47.311Z,-1.50
2019-01-25T21:38:36.762Z,-1.60
2019-01-25T21:41:26.618Z,-1.60
2019-01-25T21:44:16.427Z,-1.60
2019-01-25T21:47:06.837Z,-1.60
2019-01-25T21:49:56.799Z,-1.40
2019-01-25T21:52:46.741Z,-1.40
2019-01-25T21:55:36.890Z,-1.40
2019-01-25T21:58:26.885Z,-1.40
2019-01-25T22:01:16.662Z,-1.40
2019-01-25T22:04:06.949Z,-1.30
2019-01-25T22:06:56.996Z,-1.30
2019-01-25T22:09:47.144Z,-1.30
2019-01-25T22:12:37.334Z,-1.30
2019-01-25T22:15:27.004Z,-1.30
2019-01-25T22:18:16.716Z,-1.30
2019-01-25T22:21:06.745Z,-1.30
2019-01-25T22:23:56.754Z,-1.20
2019-01-25T22:26:46.602Z,-1.20
2019-01-25T22:29:36.731Z,-1.20
2019-01-25T22:32:26.894Z,-1.30
2019-01-25T22:35:16.994Z,-1.20
2019-01-25T22:38:07.063Z,-1.20
2019-01-25T22:40:56.690Z,-1.20
2019-01-25T22:43:46.943Z,-1.20
2019-01-25T22:46:37.050Z,-1.20
2019-01-25T22:49:27.112Z,-1.20
2019-01-25T22:52:17.223Z,-1.20
2019-01-25T22:55:09.952Z,-1.20
2019-01-25T22:58:00.892Z,-1.20
2019-01-25T23:01:15.233Z,-1.20
2019-01-25T23:04:49.113Z,-1.20
2019-01-25T23:07:38.986Z,-1.20
2019-01-25T23:10:28.982Z,-1.20
2019-01-25T23:13:19.090Z,-1.10
2019-01-25T23:16:08.864Z,-1.10
2019-01-25T23:18:58.589Z,-1.10
2019-01-25T23:21:48.509Z,-1.00
2019-01-25T23:24:38.713Z,-1.00
2019-01-25T23:27:28.792Z,-1.10
2019-01-25T23:30:19.598Z,-1.00
2019-01-25T23:33:09.238Z,-1.00
2019-01-25T23:36:00.352Z,-0.90
2019-01-25T23:38:50.470Z,-0.90
2019-01-25T23:41:40.678Z,-0.90
2019-01-25T23:44:30.658Z,-0.90
2019-01-25T23:47:20.398Z,-0.90
2019-01-25T23:50:12.717Z,-0.80
2019-01-25T23:53:02.831Z,-0.80
2019-01-25T23:55:52.771Z,-0.80
2019-01-25T23:58:42.588Z,-0.80
